sensor_id;sensor_type;location;lat;lon;timestamp;temperature;humidity
58865;DHT22;45702;52.982;6.658;2023-06-14T00:02:09;17.00;59.20
58865;DHT22;45702;52.982;6.658;2023-06-14T00:04:35;17.00;60.10
58865;DHT22;45702;52.982;6.658;2023-06-14T00:07:01;16.70;60.40
58865;DHT22;45702;52.982;6.658;2023-06-14T00:09:27;16.90;60.70
58865;DHT22;45702;52.982;6.658;2023-06-14T00:11:52;16.90;61.60
58865;DHT22;45702;52.982;6.658;2023-06-14T00:14:18;16.80;63.10
58865;DHT22;45702;52.982;6.658;2023-06-14T00:16:44;16.80;62.80
58865;DHT22;45702;52.982;6.658;2023-06-14T00:19:10;16.80;63.90
58865;DHT22;45702;52.982;6.658;2023-06-14T00:21:36;16.70;62.70
58865;DHT22;45702;52.982;6.658;2023-06-14T00:24:03;16.70;62.70
58865;DHT22;45702;52.982;6.658;2023-06-14T00:26:29;16.70;64.20
58865;DHT22;45702;52.982;6.658;2023-06-14T00:28:55;16.70;65.30
58865;DHT22;45702;52.982;6.658;2023-06-14T00:31:22;16.60;66.70
58865;DHT22;45702;52.982;6.658;2023-06-14T00:33:48;16.60;67.30
58865;DHT22;45702;52.982;6.658;2023-06-14T00:36:14;16.60;66.40
58865;DHT22;45702;52.982;6.658;2023-06-14T00:38:40;16.50;66.20
58865;DHT22;45702;52.982;6.658;2023-06-14T00:41:05;16.50;65.60
58865;DHT22;45702;52.982;6.658;2023-06-14T00:43:31;16.40;65.80
58865;DHT22;45702;52.982;6.658;2023-06-14T00:45:57;16.40;66.30
58865;DHT22;45702;52.982;6.658;2023-06-14T00:48:23;16.40;67.80
58865;DHT22;45702;52.982;6.658;2023-06-14T00:50:50;16.40;68.90
58865;DHT22;45702;52.982;6.658;2023-06-14T00:53:18;16.30;70.90
58865;DHT22;45702;52.982;6.658;2023-06-14T00:55:46;16.30;67.00
58865;DHT22;45702;52.982;6.658;2023-06-14T00:58:12;16.20;67.00
58865;DHT22;45702;52.982;6.658;2023-06-14T01:00:39;16.10;67.10
58865;DHT22;45702;52.982;6.658;2023-06-14T01:03:04;16.10;67.40
58865;DHT22;45702;52.982;6.658;2023-06-14T01:05:31;16.00;67.80
58865;DHT22;45702;52.982;6.658;2023-06-14T01:08:13;16.00;68.20
58865;DHT22;45702;52.982;6.658;2023-06-14T01:13:32;16.00;69.20
58865;DHT22;45702;52.982;6.658;2023-06-14T01:15:59;15.90;69.40
58865;DHT22;45702;52.982;6.658;2023-06-14T01:18:24;15.90;69.90
58865;DHT22;45702;52.982;6.658;2023-06-14T01:20:51;15.90;70.50
58865;DHT22;45702;52.982;6.658;2023-06-14T01:23:21;15.80;70.90
58865;DHT22;45702;52.982;6.658;2023-06-14T01:25:48;15.80;71.40
58865;DHT22;45702;52.982;6.658;2023-06-14T01:28:18;15.80;71.80
58865;DHT22;45702;52.982;6.658;2023-06-14T01:30:48;15.80;72.30
58865;DHT22;45702;52.982;6.658;2023-06-14T01:33:19;15.70;72.70
58865;DHT22;45702;52.982;6.658;2023-06-14T01:35:50;15.70;72.90
58865;DHT22;45702;52.982;6.658;2023-06-14T01:38:19;15.70;73.60
58865;DHT22;45702;52.982;6.658;2023-06-14T01:40:48;15.60;74.30
58865;DHT22;45702;52.982;6.658;2023-06-14T01:43:15;15.60;74.80
58865;DHT22;45702;52.982;6.658;2023-06-14T01:45:42;15.60;75.10
58865;DHT22;45702;52.982;6.658;2023-06-14T01:48:09;15.50;75.30
58865;DHT22;45702;52.982;6.658;2023-06-14T01:50:35;15.50;75.80
58865;DHT22;45702;52.982;6.658;2023-06-14T01:53:00;15.50;76.00
58865;DHT22;45702;52.982;6.658;2023-06-14T01:55:26;15.50;76.50
58865;DHT22;45702;52.982;6.658;2023-06-14T01:57:52;15.40;77.00
58865;DHT22;45702;52.982;6.658;2023-06-14T02:00:19;15.40;77.50
58865;DHT22;45702;52.982;6.658;2023-06-14T02:02:45;15.40;78.00
58865;DHT22;45702;52.982;6.658;2023-06-14T02:05:11;15.30;78.40
58865;DHT22;45702;52.982;6.658;2023-06-14T02:07:37;15.30;78.80
58865;DHT22;45702;52.982;6.658;2023-06-14T02:10:05;15.30;79.20
58865;DHT22;45702;52.982;6.658;2023-06-14T02:12:31;15.20;79.80
58865;DHT22;45702;52.982;6.658;2023-06-14T02:14:57;15.20;80.20
58865;DHT22;45702;52.982;6.658;2023-06-14T02:17:23;15.20;80.90
58865;DHT22;45702;52.982;6.658;2023-06-14T02:19:49;15.10;81.30
58865;DHT22;45702;52.982;6.658;2023-06-14T02:22:16;15.10;81.60
58865;DHT22;45702;52.982;6.658;2023-06-14T02:24:42;15.10;81.90
58865;DHT22;45702;52.982;6.658;2023-06-14T02:27:09;15.00;82.50
58865;DHT22;45702;52.982;6.658;2023-06-14T02:29:37;15.00;82.80
58865;DHT22;45702;52.982;6.658;2023-06-14T02:32:06;14.90;83.30
58865;DHT22;45702;52.982;6.658;2023-06-14T02:34:35;14.90;83.50
58865;DHT22;45702;52.982;6.658;2023-06-14T02:37:02;14.90;83.90
58865;DHT22;45702;52.982;6.658;2023-06-14T02:39:30;14.90;84.40
58865;DHT22;45702;52.982;6.658;2023-06-14T02:41:56;14.90;84.90
58865;DHT22;45702;52.982;6.658;2023-06-14T02:44:26;14.80;85.30
58865;DHT22;45702;52.982;6.658;2023-06-14T02:46:55;14.80;85.80
58865;DHT22;45702;52.982;6.658;2023-06-14T02:49:22;14.80;86.20
58865;DHT22;45702;52.982;6.658;2023-06-14T02:51:48;14.80;86.30
58865;DHT22;45702;52.982;6.658;2023-06-14T02:54:13;14.80;86.70
58865;DHT22;45702;52.982;6.658;2023-06-14T02:56:39;14.80;87.20
58865;DHT22;45702;52.982;6.658;2023-06-14T02:59:06;14.70;87.50
58865;DHT22;45702;52.982;6.658;2023-06-14T03:01:32;14.70;87.80
58865;DHT22;45702;52.982;6.658;2023-06-14T03:04:02;14.70;88.40
58865;DHT22;45702;52.982;6.658;2023-06-14T03:06:29;14.70;88.70
58865;DHT22;45702;52.982;6.658;2023-06-14T03:08:56;14.60;89.20
58865;DHT22;45702;52.982;6.658;2023-06-14T03:11:25;14.60;89.80
58865;DHT22;45702;52.982;6.658;2023-06-14T03:13:52;14.60;90.00
58865;DHT22;45702;52.982;6.658;2023-06-14T03:16:18;14.50;90.10
58865;DHT22;45702;52.982;6.658;2023-06-14T03:18:55;14.60;90.30
58865;DHT22;45702;52.982;6.658;2023-06-14T03:21:21;14.50;88.80
58865;DHT22;45702;52.982;6.658;2023-06-14T03:23:48;14.50;90.00
58865;DHT22;45702;52.982;6.658;2023-06-14T03:26:14;14.40;90.30
58865;DHT22;45702;52.982;6.658;2023-06-14T03:28:43;14.40;90.60
58865;DHT22;45702;52.982;6.658;2023-06-14T03:31:09;14.50;90.70
58865;DHT22;45702;52.982;6.658;2023-06-14T03:33:35;14.40;91.30
58865;DHT22;45702;52.982;6.658;2023-06-14T03:36:02;14.40;91.10
58865;DHT22;45702;52.982;6.658;2023-06-14T03:38:28;14.40;91.20
58865;DHT22;45702;52.982;6.658;2023-06-14T03:40:54;14.40;91.40
58865;DHT22;45702;52.982;6.658;2023-06-14T03:43:20;14.40;91.50
58865;DHT22;45702;52.982;6.658;2023-06-14T03:45:46;14.40;91.60
58865;DHT22;45702;52.982;6.658;2023-06-14T03:48:12;14.40;91.70
58865;DHT22;45702;52.982;6.658;2023-06-14T03:50:37;14.40;91.80
58865;DHT22;45702;52.982;6.658;2023-06-14T03:53:08;14.40;91.90
58865;DHT22;45702;52.982;6.658;2023-06-14T03:55:34;14.40;92.00
58865;DHT22;45702;52.982;6.658;2023-06-14T03:58:00;14.40;92.10
58865;DHT22;45702;52.982;6.658;2023-06-14T04:00:27;14.40;92.10
58865;DHT22;45702;52.982;6.658;2023-06-14T04:02:52;14.40;92.10
58865;DHT22;45702;52.982;6.658;2023-06-14T04:05:19;14.50;92.20
58865;DHT22;45702;52.982;6.658;2023-06-14T04:07:45;14.50;92.30
58865;DHT22;45702;52.982;6.658;2023-06-14T04:10:12;14.50;92.30
58865;DHT22;45702;52.982;6.658;2023-06-14T04:12:39;14.60;92.40
58865;DHT22;45702;52.982;6.658;2023-06-14T04:15:05;14.50;92.40
58865;DHT22;45702;52.982;6.658;2023-06-14T04:17:34;14.60;92.50
58865;DHT22;45702;52.982;6.658;2023-06-14T04:20:01;14.60;92.50
58865;DHT22;45702;52.982;6.658;2023-06-14T04:22:27;14.70;92.50
58865;DHT22;45702;52.982;6.658;2023-06-14T04:24:56;14.70;92.60
58865;DHT22;45702;52.982;6.658;2023-06-14T04:27:27;14.70;92.60
58865;DHT22;45702;52.982;6.658;2023-06-14T04:29:53;14.80;92.60
58865;DHT22;45702;52.982;6.658;2023-06-14T04:32:26;14.80;92.60
58865;DHT22;45702;52.982;6.658;2023-06-14T04:35:01;14.90;92.50
58865;DHT22;45702;52.982;6.658;2023-06-14T04:37:29;14.90;92.80
58865;DHT22;45702;52.982;6.658;2023-06-14T04:39:56;15.00;92.60
58865;DHT22;45702;52.982;6.658;2023-06-14T04:42:23;15.00;92.60
58865;DHT22;45702;52.982;6.658;2023-06-14T04:44:51;15.10;92.60
58865;DHT22;45702;52.982;6.658;2023-06-14T04:47:20;15.10;92.50
58865;DHT22;45702;52.982;6.658;2023-06-14T04:49:46;15.10;92.60
58865;DHT22;45702;52.982;6.658;2023-06-14T04:52:12;15.20;92.60
58865;DHT22;45702;52.982;6.658;2023-06-14T04:54:39;15.20;92.70
58865;DHT22;45702;52.982;6.658;2023-06-14T04:57:07;15.20;92.70
58865;DHT22;45702;52.982;6.658;2023-06-14T04:59:34;15.30;92.70
58865;DHT22;45702;52.982;6.658;2023-06-14T05:02:01;15.30;92.80
58865;DHT22;45702;52.982;6.658;2023-06-14T05:04:27;15.40;92.70
58865;DHT22;45702;52.982;6.658;2023-06-14T05:06:53;15.40;92.70
58865;DHT22;45702;52.982;6.658;2023-06-14T05:09:23;15.50;92.70
58865;DHT22;45702;52.982;6.658;2023-06-14T05:11:50;15.50;92.50
58865;DHT22;45702;52.982;6.658;2023-06-14T05:14:16;15.60;92.50
58865;DHT22;45702;52.982;6.658;2023-06-14T05:16:43;15.60;92.50
58865;DHT22;45702;52.982;6.658;2023-06-14T05:19:09;15.60;92.40
58865;DHT22;45702;52.982;6.658;2023-06-14T05:21:36;15.70;92.50
58865;DHT22;45702;52.982;6.658;2023-06-14T05:24:03;15.80;92.50
58865;DHT22;45702;52.982;6.658;2023-06-14T05:26:28;15.80;92.50
58865;DHT22;45702;52.982;6.658;2023-06-14T05:28:56;15.80;92.60
58865;DHT22;45702;52.982;6.658;2023-06-14T05:31:26;15.90;92.70
58865;DHT22;45702;52.982;6.658;2023-06-14T05:33:53;15.90;92.70
58865;DHT22;45702;52.982;6.658;2023-06-14T05:36:19;16.00;92.70
58865;DHT22;45702;52.982;6.658;2023-06-14T05:38:46;16.10;92.60
58865;DHT22;45702;52.982;6.658;2023-06-14T05:41:12;16.20;92.50
58865;DHT22;45702;52.982;6.658;2023-06-14T05:43:38;16.20;92.20
58865;DHT22;45702;52.982;6.658;2023-06-14T05:46:04;16.30;92.00
58865;DHT22;45702;52.982;6.658;2023-06-14T05:48:32;16.40;91.70
58865;DHT22;45702;52.982;6.658;2023-06-14T05:50:58;16.40;91.50
58865;DHT22;45702;52.982;6.658;2023-06-14T05:53:24;16.40;90.90
58865;DHT22;45702;52.982;6.658;2023-06-14T05:55:51;16.50;90.90
58865;DHT22;45702;52.982;6.658;2023-06-14T05:58:21;16.60;90.60
58865;DHT22;45702;52.982;6.658;2023-06-14T06:00:47;16.70;90.30
58865;DHT22;45702;52.982;6.658;2023-06-14T06:03:12;16.80;90.10
58865;DHT22;45702;52.982;6.658;2023-06-14T06:05:39;16.80;89.80
58865;DHT22;45702;52.982;6.658;2023-06-14T06:08:04;16.90;89.20
58865;DHT22;45702;52.982;6.658;2023-06-14T06:10:30;16.90;89.70
58865;DHT22;45702;52.982;6.658;2023-06-14T06:12:56;17.00;89.10
58865;DHT22;45702;52.982;6.658;2023-06-14T06:15:22;17.10;89.20
58865;DHT22;45702;52.982;6.658;2023-06-14T06:17:47;17.20;88.90
58865;DHT22;45702;52.982;6.658;2023-06-14T06:20:13;17.20;88.70
58865;DHT22;45702;52.982;6.658;2023-06-14T06:22:39;17.30;88.20
58865;DHT22;45702;52.982;6.658;2023-06-14T06:25:05;17.30;87.50
58865;DHT22;45702;52.982;6.658;2023-06-14T06:27:32;17.40;86.70
58865;DHT22;45702;52.982;6.658;2023-06-14T06:29:57;17.50;86.00
58865;DHT22;45702;52.982;6.658;2023-06-14T06:32:23;17.60;85.90
58865;DHT22;45702;52.982;6.658;2023-06-14T06:34:49;17.70;85.10
58865;DHT22;45702;52.982;6.658;2023-06-14T06:37:15;17.80;85.00
58865;DHT22;45702;52.982;6.658;2023-06-14T06:39:41;17.80;84.10
58865;DHT22;45702;52.982;6.658;2023-06-14T06:42:07;17.90;83.50
58865;DHT22;45702;52.982;6.658;2023-06-14T06:44:33;18.00;82.60
58865;DHT22;45702;52.982;6.658;2023-06-14T06:46:59;18.10;82.30
58865;DHT22;45702;52.982;6.658;2023-06-14T06:49:26;18.20;81.40
58865;DHT22;45702;52.982;6.658;2023-06-14T06:52:02;18.20;80.60
58865;DHT22;45702;52.982;6.658;2023-06-14T06:54:28;18.30;79.80
58865;DHT22;45702;52.982;6.658;2023-06-14T06:56:54;18.40;79.00
58865;DHT22;45702;52.982;6.658;2023-06-14T06:59:19;18.50;78.50
58865;DHT22;45702;52.982;6.658;2023-06-14T07:01:45;18.60;78.10
58865;DHT22;45702;52.982;6.658;2023-06-14T07:04:11;18.60;77.20
58865;DHT22;45702;52.982;6.658;2023-06-14T07:06:37;18.70;76.50
58865;DHT22;45702;52.982;6.658;2023-06-14T07:09:03;18.80;75.30
58865;DHT22;45702;52.982;6.658;2023-06-14T07:11:32;18.90;74.10
58865;DHT22;45702;52.982;6.658;2023-06-14T07:13:57;19.00;73.40
58865;DHT22;45702;52.982;6.658;2023-06-14T07:16:23;19.10;73.20
58865;DHT22;45702;52.982;6.658;2023-06-14T07:18:49;19.10;72.80
58865;DHT22;45702;52.982;6.658;2023-06-14T07:21:14;19.20;72.80
58865;DHT22;45702;52.982;6.658;2023-06-14T07:23:40;19.30;72.30
58865;DHT22;45702;52.982;6.658;2023-06-14T07:26:06;19.40;71.40
58865;DHT22;45702;52.982;6.658;2023-06-14T07:28:32;19.40;70.30
58865;DHT22;45702;52.982;6.658;2023-06-14T07:30:58;19.50;69.40
58865;DHT22;45702;52.982;6.658;2023-06-14T07:33:23;19.60;69.20
58865;DHT22;45702;52.982;6.658;2023-06-14T07:35:49;19.60;69.10
58865;DHT22;45702;52.982;6.658;2023-06-14T07:38:15;19.70;68.10
58865;DHT22;45702;52.982;6.658;2023-06-14T07:40:41;19.70;67.30
58865;DHT22;45702;52.982;6.658;2023-06-14T07:43:06;19.80;67.10
58865;DHT22;45702;52.982;6.658;2023-06-14T07:45:32;19.80;67.10
58865;DHT22;45702;52.982;6.658;2023-06-14T07:47:58;19.90;67.20
58865;DHT22;45702;52.982;6.658;2023-06-14T07:50:23;20.00;66.60
58865;DHT22;45702;52.982;6.658;2023-06-14T07:52:49;20.00;66.30
58865;DHT22;45702;52.982;6.658;2023-06-14T07:55:15;20.00;66.00
58865;DHT22;45702;52.982;6.658;2023-06-14T07:57:40;20.20;65.40
58865;DHT22;45702;52.982;6.658;2023-06-14T08:00:06;20.20;65.00
58865;DHT22;45702;52.982;6.658;2023-06-14T08:02:32;20.20;64.80
58865;DHT22;45702;52.982;6.658;2023-06-14T08:04:58;20.30;64.40
58865;DHT22;45702;52.982;6.658;2023-06-14T08:07:24;20.30;63.80
58865;DHT22;45702;52.982;6.658;2023-06-14T08:09:50;20.40;63.80
58865;DHT22;45702;52.982;6.658;2023-06-14T08:12:16;20.40;63.80
58865;DHT22;45702;52.982;6.658;2023-06-14T08:14:42;20.50;63.10
58865;DHT22;45702;52.982;6.658;2023-06-14T08:17:07;20.50;62.60
58865;DHT22;45702;52.982;6.658;2023-06-14T08:19:33;20.60;61.80
58865;DHT22;45702;52.982;6.658;2023-06-14T08:21:59;20.60;60.90
58865;DHT22;45702;52.982;6.658;2023-06-14T08:24:25;20.70;60.70
58865;DHT22;45702;52.982;6.658;2023-06-14T08:26:53;20.80;60.10
58865;DHT22;45702;52.982;6.658;2023-06-14T08:29:19;20.80;59.40
58865;DHT22;45702;52.982;6.658;2023-06-14T08:31:45;20.90;59.50
58865;DHT22;45702;52.982;6.658;2023-06-14T08:34:13;21.00;59.50
58865;DHT22;45702;52.982;6.658;2023-06-14T08:36:38;21.10;59.60
58865;DHT22;45702;52.982;6.658;2023-06-14T08:39:04;21.20;58.80
58865;DHT22;45702;52.982;6.658;2023-06-14T08:41:30;21.20;57.90
58865;DHT22;45702;52.982;6.658;2023-06-14T08:43:56;21.20;58.50
58865;DHT22;45702;52.982;6.658;2023-06-14T08:46:25;21.30;57.50
58865;DHT22;45702;52.982;6.658;2023-06-14T08:48:55;21.40;57.40
58865;DHT22;45702;52.982;6.658;2023-06-14T08:51:25;21.50;56.70
58865;DHT22;45702;52.982;6.658;2023-06-14T08:53:53;21.50;55.90
58865;DHT22;45702;52.982;6.658;2023-06-14T08:56:25;21.60;55.80
58865;DHT22;45702;52.982;6.658;2023-06-14T08:58:53;21.60;55.60
58865;DHT22;45702;52.982;6.658;2023-06-14T09:01:20;21.70;55.50
58865;DHT22;45702;52.982;6.658;2023-06-14T09:03:48;21.80;55.60
58865;DHT22;45702;52.982;6.658;2023-06-14T09:06:14;21.80;55.30
58865;DHT22;45702;52.982;6.658;2023-06-14T09:08:45;22.00;55.10
58865;DHT22;45702;52.982;6.658;2023-06-14T09:11:16;22.10;54.60
58865;DHT22;45702;52.982;6.658;2023-06-14T09:13:44;22.20;54.80
58865;DHT22;45702;52.982;6.658;2023-06-14T09:16:10;22.30;54.50
58865;DHT22;45702;52.982;6.658;2023-06-14T09:18:43;22.40;53.90
58865;DHT22;45702;52.982;6.658;2023-06-14T09:21:11;22.50;53.50
58865;DHT22;45702;52.982;6.658;2023-06-14T09:23:42;22.70;53.00
58865;DHT22;45702;52.982;6.658;2023-06-14T09:26:12;22.80;53.00
58865;DHT22;45702;52.982;6.658;2023-06-14T09:28:43;22.90;51.80
58865;DHT22;45702;52.982;6.658;2023-06-14T09:31:13;23.00;51.60
58865;DHT22;45702;52.982;6.658;2023-06-14T09:33:42;23.10;51.20
58865;DHT22;45702;52.982;6.658;2023-06-14T09:36:20;23.20;51.00
58865;DHT22;45702;52.982;6.658;2023-06-14T09:38:59;23.30;50.40
58865;DHT22;45702;52.982;6.658;2023-06-14T09:41:32;23.50;50.30
58865;DHT22;45702;52.982;6.658;2023-06-14T09:44:00;23.50;50.40
58865;DHT22;45702;52.982;6.658;2023-06-14T09:46:28;23.60;49.80
58865;DHT22;45702;52.982;6.658;2023-06-14T09:48:55;23.70;49.80
58865;DHT22;45702;52.982;6.658;2023-06-14T09:51:22;23.90;49.50
58865;DHT22;45702;52.982;6.658;2023-06-14T09:53:52;24.00;49.20
58865;DHT22;45702;52.982;6.658;2023-06-14T09:56:45;24.10;48.40
58865;DHT22;45702;52.982;6.658;2023-06-14T09:59:12;24.20;48.80
58865;DHT22;45702;52.982;6.658;2023-06-14T10:01:43;24.20;47.90
58865;DHT22;45702;52.982;6.658;2023-06-14T10:04:10;24.20;47.50
58865;DHT22;45702;52.982;6.658;2023-06-14T10:06:45;24.20;47.00
58865;DHT22;45702;52.982;6.658;2023-06-14T10:09:11;24.20;46.60
58865;DHT22;45702;52.982;6.658;2023-06-14T10:11:38;24.30;47.10
58865;DHT22;45702;52.982;6.658;2023-06-14T10:14:10;24.40;46.90
58865;DHT22;45702;52.982;6.658;2023-06-14T10:19:47;24.60;46.00
58865;DHT22;45702;52.982;6.658;2023-06-14T10:24:45;24.70;45.90
58865;DHT22;45702;52.982;6.658;2023-06-14T10:27:15;24.80;45.50
58865;DHT22;45702;52.982;6.658;2023-06-14T10:30:04;24.90;45.60
58865;DHT22;45702;52.982;6.658;2023-06-14T10:32:32;24.90;45.60
58865;DHT22;45702;52.982;6.658;2023-06-14T10:35:05;24.90;45.60
58865;DHT22;45702;52.982;6.658;2023-06-14T10:37:34;25.00;45.60
58865;DHT22;45702;52.982;6.658;2023-06-14T10:40:01;25.00;45.20
58865;DHT22;45702;52.982;6.658;2023-06-14T10:42:33;25.00;45.10
58865;DHT22;45702;52.982;6.658;2023-06-14T10:44:59;25.00;44.70
58865;DHT22;45702;52.982;6.658;2023-06-14T10:49:57;25.00;44.10
58865;DHT22;45702;52.982;6.658;2023-06-14T10:52:28;25.00;43.90
58865;DHT22;45702;52.982;6.658;2023-06-14T10:57:35;25.00;43.90
58865;DHT22;45702;52.982;6.658;2023-06-14T11:00:03;25.00;42.90
58865;DHT22;45702;52.982;6.658;2023-06-14T11:05:27;25.10;42.90
58865;DHT22;45702;52.982;6.658;2023-06-14T11:10:39;25.20;43.00
58865;DHT22;45702;52.982;6.658;2023-06-14T11:13:08;25.20;43.00
58865;DHT22;45702;52.982;6.658;2023-06-14T11:15:36;25.20;43.00
58865;DHT22;45702;52.982;6.658;2023-06-14T11:18:06;25.30;42.70
58865;DHT22;45702;52.982;6.658;2023-06-14T11:20:33;25.30;42.30
58865;DHT22;45702;52.982;6.658;2023-06-14T11:23:00;25.30;42.60
58865;DHT22;45702;52.982;6.658;2023-06-14T11:25:26;25.40;42.60
58865;DHT22;45702;52.982;6.658;2023-06-14T11:27:54;25.40;42.60
58865;DHT22;45702;52.982;6.658;2023-06-14T11:30:20;25.50;42.70
58865;DHT22;45702;52.982;6.658;2023-06-14T11:32:49;25.60;42.80
58865;DHT22;45702;52.982;6.658;2023-06-14T11:35:16;25.70;42.90
58865;DHT22;45702;52.982;6.658;2023-06-14T11:37:43;25.70;42.80
58865;DHT22;45702;52.982;6.658;2023-06-14T11:40:10;25.50;42.90
58865;DHT22;45702;52.982;6.658;2023-06-14T11:42:38;25.40;43.30
58865;DHT22;45702;52.982;6.658;2023-06-14T11:45:07;25.40;43.70
58865;DHT22;45702;52.982;6.658;2023-06-14T11:47:34;25.50;43.70
58865;DHT22;45702;52.982;6.658;2023-06-14T11:50:01;25.50;43.60
58865;DHT22;45702;52.982;6.658;2023-06-14T11:52:27;25.50;43.90
58865;DHT22;45702;52.982;6.658;2023-06-14T11:54:53;25.60;43.70
58865;DHT22;45702;52.982;6.658;2023-06-14T11:57:19;25.70;43.10
58865;DHT22;45702;52.982;6.658;2023-06-14T11:59:45;25.70;42.60
58865;DHT22;45702;52.982;6.658;2023-06-14T12:02:18;25.70;42.70
58865;DHT22;45702;52.982;6.658;2023-06-14T12:04:47;25.80;42.90
58865;DHT22;45702;52.982;6.658;2023-06-14T12:07:17;25.90;43.00
58865;DHT22;45702;52.982;6.658;2023-06-14T12:12:25;26.00;42.80
58865;DHT22;45702;52.982;6.658;2023-06-14T12:14:53;26.10;42.60
58865;DHT22;45702;52.982;6.658;2023-06-14T12:17:19;26.10;42.40
58865;DHT22;45702;52.982;6.658;2023-06-14T12:19:46;26.20;41.90
58865;DHT22;45702;52.982;6.658;2023-06-14T12:22:13;26.20;41.20
58865;DHT22;45702;52.982;6.658;2023-06-14T12:24:39;26.30;41.40
58865;DHT22;45702;52.982;6.658;2023-06-14T12:27:05;26.30;41.20
58865;DHT22;45702;52.982;6.658;2023-06-14T12:29:31;26.30;41.10
58865;DHT22;45702;52.982;6.658;2023-06-14T12:31:57;26.30;41.40
58865;DHT22;45702;52.982;6.658;2023-06-14T12:34:27;26.40;41.30
58865;DHT22;45702;52.982;6.658;2023-06-14T12:36:56;26.30;40.90
58865;DHT22;45702;52.982;6.658;2023-06-14T12:39:22;26.30;41.00
58865;DHT22;45702;52.982;6.658;2023-06-14T12:41:48;26.20;40.90
58865;DHT22;45702;52.982;6.658;2023-06-14T12:44:14;26.30;41.20
58865;DHT22;45702;52.982;6.658;2023-06-14T12:46:44;26.40;41.00
58865;DHT22;45702;52.982;6.658;2023-06-14T12:49:11;26.50;40.80
58865;DHT22;45702;52.982;6.658;2023-06-14T12:51:38;26.70;40.40
58865;DHT22;45702;52.982;6.658;2023-06-14T12:54:04;26.80;40.50
58865;DHT22;45702;52.982;6.658;2023-06-14T12:56:29;26.90;40.30
58865;DHT22;45702;52.982;6.658;2023-06-14T12:58:55;27.00;39.90
58865;DHT22;45702;52.982;6.658;2023-06-14T13:01:21;27.10;39.60
58865;DHT22;45702;52.982;6.658;2023-06-14T13:03:47;27.00;39.60
58865;DHT22;45702;52.982;6.658;2023-06-14T13:06:13;27.10;40.00
58865;DHT22;45702;52.982;6.658;2023-06-14T13:08:39;27.10;39.60
58865;DHT22;45702;52.982;6.658;2023-06-14T13:11:05;27.30;39.40
58865;DHT22;45702;52.982;6.658;2023-06-14T13:13:31;27.50;39.40
58865;DHT22;45702;52.982;6.658;2023-06-14T13:15:56;27.70;39.50
58865;DHT22;45702;52.982;6.658;2023-06-14T13:18:22;27.80;39.20
58865;DHT22;45702;52.982;6.658;2023-06-14T13:20:48;28.00;39.20
58865;DHT22;45702;52.982;6.658;2023-06-14T13:23:15;28.20;38.70
58865;DHT22;45702;52.982;6.658;2023-06-14T13:25:40;28.20;38.30
58865;DHT22;45702;52.982;6.658;2023-06-14T13:28:06;28.30;38.40
58865;DHT22;45702;52.982;6.658;2023-06-14T13:30:34;28.40;38.40
58865;DHT22;45702;52.982;6.658;2023-06-14T13:33:00;28.60;37.50
58865;DHT22;45702;52.982;6.658;2023-06-14T13:35:26;28.70;37.50
58865;DHT22;45702;52.982;6.658;2023-06-14T13:37:52;29.00;37.40
58865;DHT22;45702;52.982;6.658;2023-06-14T13:40:18;29.40;37.30
58865;DHT22;45702;52.982;6.658;2023-06-14T13:42:44;29.60;36.60
58865;DHT22;45702;52.982;6.658;2023-06-14T13:45:11;29.90;36.10
58865;DHT22;45702;52.982;6.658;2023-06-14T13:47:37;30.00;36.10
58865;DHT22;45702;52.982;6.658;2023-06-14T13:50:04;29.90;36.00
58865;DHT22;45702;52.982;6.658;2023-06-14T13:52:30;29.60;36.10
58865;DHT22;45702;52.982;6.658;2023-06-14T13:54:56;29.80;35.80
58865;DHT22;45702;52.982;6.658;2023-06-14T13:57:21;30.00;35.40
58865;DHT22;45702;52.982;6.658;2023-06-14T13:59:47;30.40;35.50
58865;DHT22;45702;52.982;6.658;2023-06-14T14:02:13;30.60;35.50
58865;DHT22;45702;52.982;6.658;2023-06-14T14:04:40;30.60;35.30
58865;DHT22;45702;52.982;6.658;2023-06-14T14:07:07;30.70;35.20
58865;DHT22;45702;52.982;6.658;2023-06-14T14:09:34;30.80;35.00
58865;DHT22;45702;52.982;6.658;2023-06-14T14:12:04;30.90;35.80
58865;DHT22;45702;52.982;6.658;2023-06-14T14:14:31;31.00;34.70
58865;DHT22;45702;52.982;6.658;2023-06-14T14:16:57;30.80;34.50
58865;DHT22;45702;52.982;6.658;2023-06-14T14:19:24;30.60;34.20
58865;DHT22;45702;52.982;6.658;2023-06-14T14:21:50;30.60;35.30
58865;DHT22;45702;52.982;6.658;2023-06-14T14:24:15;30.80;34.80
58865;DHT22;45702;52.982;6.658;2023-06-14T14:26:41;31.10;34.60
58865;DHT22;45702;52.982;6.658;2023-06-14T14:29:08;31.40;34.10
58865;DHT22;45702;52.982;6.658;2023-06-14T14:31:37;31.50;33.80
58865;DHT22;45702;52.982;6.658;2023-06-14T14:34:02;31.80;33.70
58865;DHT22;45702;52.982;6.658;2023-06-14T14:36:28;32.10;33.20
58865;DHT22;45702;52.982;6.658;2023-06-14T14:38:54;32.30;33.10
58865;DHT22;45702;52.982;6.658;2023-06-14T14:41:19;32.50;32.90
58865;DHT22;45702;52.982;6.658;2023-06-14T14:43:45;32.70;32.40
58865;DHT22;45702;52.982;6.658;2023-06-14T14:46:11;32.90;32.20
58865;DHT22;45702;52.982;6.658;2023-06-14T14:48:37;33.00;32.00
58865;DHT22;45702;52.982;6.658;2023-06-14T14:51:02;32.60;32.10
58865;DHT22;45702;52.982;6.658;2023-06-14T14:53:29;32.00;32.30
58865;DHT22;45702;52.982;6.658;2023-06-14T14:55:54;31.40;32.90
58865;DHT22;45702;52.982;6.658;2023-06-14T14:58:20;30.90;33.70
58865;DHT22;45702;52.982;6.658;2023-06-14T15:00:47;30.20;34.10
58865;DHT22;45702;52.982;6.658;2023-06-14T15:03:13;29.70;34.60
58865;DHT22;45702;52.982;6.658;2023-06-14T15:05:39;29.30;34.60
58865;DHT22;45702;52.982;6.658;2023-06-14T15:08:05;29.60;35.10
58865;DHT22;45702;52.982;6.658;2023-06-14T15:10:38;30.20;34.70
58865;DHT22;45702;52.982;6.658;2023-06-14T15:13:06;30.80;34.10
58865;DHT22;45702;52.982;6.658;2023-06-14T15:15:32;31.00;32.90
58865;DHT22;45702;52.982;6.658;2023-06-14T15:17:59;30.60;32.70
58865;DHT22;45702;52.982;6.658;2023-06-14T15:20:25;30.10;33.00
58865;DHT22;45702;52.982;6.658;2023-06-14T15:22:51;29.90;34.00
58865;DHT22;45702;52.982;6.658;2023-06-14T15:25:18;30.30;34.20
58865;DHT22;45702;52.982;6.658;2023-06-14T15:27:44;31.10;33.50
58865;DHT22;45702;52.982;6.658;2023-06-14T15:30:10;32.00;32.90
58865;DHT22;45702;52.982;6.658;2023-06-14T15:32:36;32.60;32.00
58865;DHT22;45702;52.982;6.658;2023-06-14T15:35:02;33.00;31.50
58865;DHT22;45702;52.982;6.658;2023-06-14T15:37:28;33.30;30.80
58865;DHT22;45702;52.982;6.658;2023-06-14T15:39:53;32.80;30.60
58865;DHT22;45702;52.982;6.658;2023-06-14T15:42:19;32.10;30.90
58865;DHT22;45702;52.982;6.658;2023-06-14T15:44:45;31.40;31.40
58865;DHT22;45702;52.982;6.658;2023-06-14T15:47:13;30.70;32.00
58865;DHT22;45702;52.982;6.658;2023-06-14T15:49:38;30.00;33.30
58865;DHT22;45702;52.982;6.658;2023-06-14T15:52:04;29.60;33.30